Time;durP1;ratioP1;P1;durP2;ratioP2;P2;SDS_P1;SDS_P2;PMS_P1;PMS_P2;Temp;Humidity;BMP_temperature;BMP_pressure;BME280_temperature;BME280_humidity;BME280_pressure;Samples;Min_cycle;Max_cycle;Signal;HPM_P1;HPM_P2
2021/09/23 00:00:08;;;;;;;9.95;7.03;;;13.60;99.90;;;;;;5094810;28;20162;-85
2021/09/23 00:05:25;;;;;;;10.35;6.45;;;13.70;99.90;;;;;;5095879;28;20645;-85
2021/09/23 00:07:52;;;;;;;11.18;7.00;;;13.90;99.90;;;;;;5094986;28;20271;-85
2021/09/23 00:10:28;;;;;;;8.23;7.07;;;13.80;99.90;;;;;;5095213;28;20197;-86
2021/09/23 00:12:54;;;;;;;10.63;6.75;;;13.80;99.90;;;;;;5094988;28;20238;-86
2021/09/23 00:15:21;;;;;;;8.68;7.07;;;13.60;99.90;;;;;;5094979;28;20154;-85
2021/09/23 00:17:55;;;;;;;11.85;7.38;;;13.70;99.90;;;;;;5095121;28;20182;-88
2021/09/23 00:20:25;;;;;;;11.43;6.63;;;13.90;99.90;;;;;;5094769;28;20240;-87
2021/09/23 00:22:51;;;;;;;12.50;7.65;;;13.80;99.90;;;;;;5094853;28;20166;-87
2021/09/23 00:25:17;;;;;;;8.32;6.75;;;13.80;99.90;;;;;;5094970;28;20170;-86
2021/09/23 00:27:44;;;;;;;7.90;7.15;;;13.80;99.90;;;;;;5094608;28;20213;-87
2021/09/23 00:30:10;;;;;;;12.32;7.47;;;13.70;99.90;;;;;;5094616;28;20165;-87
2021/09/23 00:32:37;;;;;;;8.23;6.70;;;13.70;99.90;;;;;;5095314;28;20241;-83
2021/09/23 00:35:05;;;;;;;9.15;7.55;;;13.50;99.90;;;;;;5094618;28;20166;-87
2021/09/23 00:37:30;;;;;;;11.43;7.60;;;13.40;99.90;;;;;;5094780;28;20253;-89
2021/09/23 00:39:56;;;;;;;10.00;7.78;;;13.60;99.90;;;;;;5094379;28;20248;-88
2021/09/23 00:42:21;;;;;;;9.55;7.85;;;13.60;99.90;;;;;;5094149;28;20166;-85
2021/09/23 00:44:55;;;;;;;14.02;7.97;;;13.40;99.90;;;;;;5093370;28;20712;-88
2021/09/23 00:47:20;;;;;;;11.88;7.80;;;13.30;99.90;;;;;;5093950;28;20198;-85
2021/09/23 00:49:46;;;;;;;11.32;8.38;;;13.30;99.90;;;;;;5094043;28;20166;-79
2021/09/23 00:52:12;;;;;;;9.23;8.20;;;13.40;99.90;;;;;;5093907;28;20170;-78
2021/09/23 00:54:38;;;;;;;13.48;8.57;;;13.50;99.90;;;;;;5094006;28;20629;-78
2021/09/23 00:57:04;;;;;;;12.18;7.93;;;13.50;99.90;;;;;;5093595;28;20170;-88
2021/09/23 00:59:29;;;;;;;10.65;8.15;;;13.50;99.90;;;;;;5094031;28;20193;-83
2021/09/23 01:01:55;;;;;;;13.13;8.55;;;13.40;99.90;;;;;;5094153;28;20532;-81
2021/09/23 01:04:21;;;;;;;9.00;8.15;;;13.50;99.90;;;;;;5093929;28;20212;-88
2021/09/23 01:06:50;;;;;;;17.85;8.00;;;13.50;99.90;;;;;;5093800;28;20166;-84
2021/09/23 01:09:16;;;;;;;14.18;7.80;;;13.40;99.90;;;;;;5098176;28;20236;-78
2021/09/23 01:11:43;;;;;;;12.07;7.65;;;13.40;99.90;;;;;;5103395;28;20181;-85
2021/09/23 01:14:08;;;;;;;14.73;7.47;;;13.50;99.90;;;;;;5103358;28;20177;-82
2021/09/23 01:16:34;;;;;;;12.32;7.88;;;13.60;99.90;;;;;;5103715;28;20162;-80
2021/09/23 01:19:00;;;;;;;18.45;8.43;;;13.70;99.90;;;;;;5101415;28;21340;-84
2021/09/23 01:21:26;;;;;;;12.07;7.85;;;13.70;99.90;;;;;;5101097;28;20166;-85
2021/09/23 01:23:51;;;;;;;10.77;7.72;;;13.70;99.90;;;;;;5100401;28;20243;-89
2021/09/23 01:26:26;;;;;;;8.98;7.35;;;13.60;99.90;;;;;;5101384;28;20194;-81
2021/09/23 01:28:52;;;;;;;10.40;8.32;;;13.50;99.90;;;;;;5100662;28;20207;-78
2021/09/23 01:31:18;;;;;;;14.13;7.82;;;13.50;99.90;;;;;;5095705;28;20166;-89
2021/09/23 01:33:43;;;;;;;15.98;8.65;;;13.50;99.90;;;;;;5094304;28;20180;-84
2021/09/23 01:36:09;;;;;;;12.32;7.13;;;13.40;99.90;;;;;;5094802;28;20506;-76
2021/09/23 01:38:34;;;;;;;15.55;7.97;;;13.50;99.90;;;;;;5098721;28;20227;-77
2021/09/23 01:41:00;;;;;;;11.90;8.73;;;13.60;99.90;;;;;;5097044;28;20165;-80
2021/09/23 01:43:26;;;;;;;10.18;7.53;;;13.60;99.90;;;;;;5097303;28;20640;-78
2021/09/23 01:45:51;;;;;;;15.82;8.73;;;13.60;99.90;;;;;;5097565;28;20618;-87
2021/09/23 01:48:17;;;;;;;9.32;8.20;;;13.80;99.90;;;;;;5096865;28;20758;-78
2021/09/23 01:50:43;;;;;;;15.65;8.82;;;13.80;99.90;;;;;;5097609;28;20212;-78
2021/09/23 01:53:08;;;;;;;9.85;8.23;;;13.60;99.90;;;;;;5093454;28;20173;-76
2021/09/23 01:55:34;;;;;;;12.73;8.88;;;13.40;99.90;;;;;;5096723;28;20182;-76
2021/09/23 01:58:00;;;;;;;17.33;9.25;;;13.50;99.90;;;;;;5100527;28;20264;-78
2021/09/23 02:00:26;;;;;;;17.33;8.77;;;13.60;99.90;;;;;;5101411;28;20170;-85
2021/09/23 02:02:54;;;;;;;10.63;7.75;;;13.50;99.90;;;;;;5102026;28;20169;-86
2021/09/23 02:05:20;;;;;;;11.50;8.00;;;13.50;99.90;;;;;;5103690;28;20517;-87
2021/09/23 02:07:46;;;;;;;17.48;7.72;;;13.40;99.90;;;;;;5110393;28;20194;-83
2021/09/23 02:10:12;;;;;;;11.40;8.25;;;13.30;99.90;;;;;;5109167;28;20208;-82
2021/09/23 02:12:38;;;;;;;12.30;8.50;;;13.20;99.90;;;;;;5112586;28;20245;-78
2021/09/23 02:15:04;;;;;;;9.32;8.32;;;13.20;99.90;;;;;;5106373;28;20193;-79
2021/09/23 02:17:30;;;;;;;11.00;7.85;;;13.10;99.90;;;;;;5101824;28;20173;-88
2021/09/23 02:19:56;;;;;;;15.00;7.85;;;13.10;99.90;;;;;;5099444;28;20162;-88
2021/09/23 02:22:22;;;;;;;9.75;7.57;;;13.10;99.90;;;;;;5099937;28;20568;-89
2021/09/23 02:24:47;;;;;;;9.05;8.13;;;13.20;99.90;;;;;;5099281;28;20158;-85
2021/09/23 02:27:13;;;;;;;13.48;8.68;;;13.20;99.90;;;;;;5100067;28;20205;-89
2021/09/23 02:29:39;;;;;;;11.65;7.70;;;13.10;99.90;;;;;;5100607;28;20231;-80
2021/09/23 02:32:05;;;;;;;16.08;8.48;;;13.10;99.90;;;;;;5099008;28;20200;-83
2021/09/23 02:34:31;;;;;;;13.10;9.07;;;13.20;99.90;;;;;;5097610;28;20219;-79
2021/09/23 02:36:57;;;;;;;14.43;8.60;;;13.30;99.90;;;;;;5100593;28;20174;-81
2021/09/23 02:39:23;;;;;;;10.43;8.05;;;13.30;99.90;;;;;;5097284;28;20661;-84
2021/09/23 02:41:49;;;;;;;11.52;8.68;;;13.30;99.90;;;;;;5096985;28;20522;-83
2021/09/23 02:44:14;;;;;;;16.67;9.43;;;13.20;99.90;;;;;;5096793;28;20173;-86
2021/09/23 02:46:40;;;;;;;11.07;8.95;;;13.30;99.90;;;;;;5096735;28;20177;-88
2021/09/23 02:49:06;;;;;;;11.00;8.80;;;13.20;99.90;;;;;;5096701;28;20204;-86
2021/09/23 02:51:32;;;;;;;10.43;7.80;;;13.30;99.90;;;;;;5096483;28;20265;-80
2021/09/23 02:53:58;;;;;;;13.73;9.70;;;13.30;99.90;;;;;;5096890;28;20212;-88
2021/09/23 02:56:24;;;;;;;18.10;8.80;;;13.30;99.90;;;;;;5097146;28;20188;-87
2021/09/23 02:58:50;;;;;;;12.18;8.98;;;13.30;99.90;;;;;;5096648;28;20194;-87
2021/09/23 03:01:17;;;;;;;10.60;8.73;;;13.30;99.90;;;;;;5096492;28;20197;-88
2021/09/23 03:03:43;;;;;;;15.43;8.75;;;13.30;99.90;;;;;;5096345;28;20162;-87
2021/09/23 03:06:09;;;;;;;12.43;9.85;;;13.30;99.90;;;;;;5096503;28;20219;-83
2021/09/23 03:08:34;;;;;;;14.70;8.50;;;13.40;99.90;;;;;;5095412;28;20201;-87
2021/09/23 03:11:00;;;;;;;15.23;9.82;;;13.20;99.90;;;;;;5093714;28;20181;-75
2021/09/23 03:13:26;;;;;;;11.00;9.85;;;13.20;99.90;;;;;;5094997;28;20177;-75
2021/09/23 03:15:52;;;;;;;18.90;8.95;;;13.30;99.90;;;;;;5094760;28;20519;-75
2021/09/23 03:18:17;;;;;;;18.85;8.65;;;13.30;99.90;;;;;;5094385;28;20269;-83
2021/09/23 03:20:45;;;;;;;11.98;8.88;;;13.30;99.90;;;;;;5095085;28;20162;-86
2021/09/23 03:23:11;;;;;;;15.18;9.95;;;13.10;99.90;;;;;;5094660;28;20166;-77
2021/09/23 03:25:37;;;;;;;10.40;8.75;;;13.00;99.90;;;;;;5094896;28;20207;-87
2021/09/23 03:28:03;;;;;;;16.27;10.73;;;13.00;99.90;;;;;;5095295;28;20206;-77
2021/09/23 03:30:29;;;;;;;10.73;9.10;;;13.00;99.90;;;;;;5095176;28;20174;-76
2021/09/23 03:32:55;;;;;;;15.38;9.30;;;13.00;99.90;;;;;;5096897;28;20170;-80
2021/09/23 03:35:22;;;;;;;14.02;9.25;;;13.00;99.90;;;;;;5098263;28;20161;-76
2021/09/23 03:37:50;;;;;;;16.63;9.60;;;13.10;99.90;;;;;;5096791;28;20193;-78
2021/09/23 03:40:16;;;;;;;18.88;10.68;;;13.10;99.90;;;;;;5096256;28;20182;-76
2021/09/23 03:42:42;;;;;;;10.15;8.90;;;13.10;99.90;;;;;;5095524;28;20166;-76
2021/09/23 03:45:08;;;;;;;15.10;9.55;;;13.10;99.90;;;;;;5094446;28;20169;-85
2021/09/23 03:47:34;;;;;;;12.27;9.43;;;13.00;99.90;;;;;;5094951;28;20890;-75
2021/09/23 03:50:00;;;;;;;13.35;8.50;;;13.00;99.90;;;;;;5094790;28;20169;-74
2021/09/23 03:52:26;;;;;;;12.57;9.75;;;13.10;99.90;;;;;;5095288;28;20252;-84
2021/09/23 03:54:52;;;;;;;13.73;9.57;;;13.20;99.90;;;;;;5095607;28;20219;-88
2021/09/23 03:57:19;;;;;;;11.90;10.07;;;13.10;99.90;;;;;;5096124;28;20174;-86
2021/09/23 03:59:46;;;;;;;12.60;8.50;;;13.00;99.90;;;;;;5098260;28;20169;-86
2021/09/23 04:02:12;;;;;;;19.63;10.13;;;12.90;99.90;;;;;;5101798;28;20245;-75
2021/09/23 04:04:38;;;;;;;12.70;9.88;;;12.90;99.90;;;;;;5096658;28;20173;-88
2021/09/23 04:07:04;;;;;;;13.48;9.15;;;12.90;99.90;;;;;;5097282;28;20218;-81
2021/09/23 04:09:30;;;;;;;13.85;9.38;;;12.90;99.90;;;;;;5096148;28;20571;-88
2021/09/23 04:11:55;;;;;;;15.13;10.40;;;12.90;99.90;;;;;;5096557;28;20177;-81
2021/09/23 04:14:21;;;;;;;16.55;10.93;;;12.90;99.90;;;;;;5100700;28;20172;-85
2021/09/23 04:16:48;;;;;;;17.58;10.57;;;12.80;99.90;;;;;;5100317;28;20173;-89
2021/09/23 04:19:14;;;;;;;12.27;10.68;;;12.80;99.90;;;;;;5096059;28;20193;-81
2021/09/23 04:21:40;;;;;;;16.45;11.63;;;12.90;99.90;;;;;;5094861;28;20638;-87
2021/09/23 04:24:06;;;;;;;21.98;11.07;;;13.00;99.90;;;;;;5096246;28;20158;-79
2021/09/23 04:26:32;;;;;;;15.65;11.23;;;12.70;99.90;;;;;;5094728;28;20170;-87
2021/09/23 04:28:58;;;;;;;21.40;11.73;;;12.70;99.90;;;;;;5094358;28;20207;-83
2021/09/23 04:31:23;;;;;;;20.02;11.63;;;12.80;99.90;;;;;;5093834;28;20166;-88
2021/09/23 04:33:49;;;;;;;17.48;11.30;;;12.90;99.90;;;;;;5093928;28;20177;-77
2021/09/23 04:36:15;;;;;;;19.02;12.20;;;13.00;99.90;;;;;;5096652;28;20158;-77
2021/09/23 04:38:40;;;;;;;16.40;10.93;;;12.90;99.90;;;;;;5097991;28;20221;-89
2021/09/23 04:41:06;;;;;;;27.10;12.25;;;13.00;99.90;;;;;;5098122;28;20158;-88
2021/09/23 04:43:32;;;;;;;20.83;11.35;;;12.90;99.90;;;;;;5095779;28;20635;-83
2021/09/23 04:45:58;;;;;;;15.48;10.93;;;12.80;99.90;;;;;;5095962;28;20162;-85
2021/09/23 04:48:23;;;;;;;19.48;11.02;;;12.80;99.90;;;;;;5094705;28;20217;-79
2021/09/23 04:50:49;;;;;;;13.25;10.60;;;12.70;99.90;;;;;;5095846;28;20705;-82
2021/09/23 04:53:14;;;;;;;14.82;12.57;;;12.80;99.90;;;;;;5096165;28;20216;-84
2021/09/23 04:55:41;;;;;;;18.38;11.23;;;12.90;99.90;;;;;;5096136;28;20174;-87
2021/09/23 04:58:07;;;;;;;15.40;10.68;;;12.80;99.90;;;;;;5095028;28;20192;-84
2021/09/23 05:00:32;;;;;;;14.07;10.98;;;12.80;99.90;;;;;;5095640;28;20249;-76
2021/09/23 05:02:58;;;;;;;15.05;11.52;;;12.90;99.90;;;;;;5100634;28;20170;-77
2021/09/23 05:05:24;;;;;;;19.50;11.75;;;13.00;99.90;;;;;;5102843;28;20176;-77
2021/09/23 05:07:49;;;;;;;16.55;11.65;;;12.90;99.90;;;;;;5108290;28;20260;-86
2021/09/23 05:10:15;;;;;;;18.52;12.50;;;13.00;99.90;;;;;;5097811;28;20162;-87
2021/09/23 05:12:42;;;;;;;19.98;12.93;;;12.90;99.90;;;;;;5097128;28;20185;-88
2021/09/23 05:15:12;;;;;;;19.33;11.65;;;13.00;99.90;;;;;;5093908;28;20178;-86
2021/09/23 05:17:38;;;;;;;20.65;12.63;;;12.90;99.90;;;;;;5099271;28;20162;-77
2021/09/23 05:20:04;;;;;;;17.02;11.98;;;12.90;99.90;;;;;;5101005;28;20180;-89
2021/09/23 05:22:30;;;;;;;22.58;12.63;;;12.90;99.90;;;;;;5099192;28;20531;-87
2021/09/23 05:24:56;;;;;;;23.88;12.75;;;13.00;99.90;;;;;;5099176;28;20176;-87
2021/09/23 05:27:22;;;;;;;15.73;12.55;;;12.90;99.90;;;;;;5095428;28;20192;-85
2021/09/23 05:29:48;;;;;;;26.70;13.32;;;12.90;99.90;;;;;;5097421;28;20170;-77
2021/09/23 05:32:13;;;;;;;20.55;13.40;;;13.00;99.90;;;;;;5102493;28;20245;-77
2021/09/23 05:34:39;;;;;;;24.13;12.98;;;13.10;99.90;;;;;;5104410;28;20170;-84
2021/09/23 05:37:05;;;;;;;24.02;12.95;;;13.00;99.90;;;;;;5104864;28;20205;-89
2021/09/23 05:39:31;;;;;;;21.17;13.82;;;13.00;99.90;;;;;;5106647;28;20260;-87
2021/09/23 05:41:57;;;;;;;25.00;14.15;;;13.00;99.90;;;;;;5103971;28;20194;-84
2021/09/23 05:44:25;;;;;;;25.77;14.20;;;13.00;99.90;;;;;;5104476;28;20170;-84
2021/09/23 05:46:53;;;;;;;23.75;13.65;;;13.00;99.90;;;;;;5104261;28;20768;-85
2021/09/23 05:49:23;;;;;;;29.17;14.57;;;13.00;99.90;;;;;;5105295;28;20209;-87
2021/09/23 05:51:51;;;;;;;29.35;15.68;;;13.00;99.90;;;;;;5105472;28;20180;-86
2021/09/23 05:54:18;;;;;;;29.92;14.88;;;12.90;99.90;;;;;;5106066;28;20181;-76
2021/09/23 05:56:44;;;;;;;27.92;14.13;;;13.00;99.90;;;;;;5099090;28;20236;-83
2021/09/23 05:59:09;;;;;;;66.10;16.88;;;12.90;99.90;;;;;;5098309;28;20201;-83
2021/09/23 06:01:35;;;;;;;43.72;15.75;;;13.00;99.90;;;;;;5098155;28;20641;-82
2021/09/23 06:04:00;;;;;;;30.75;13.98;;;13.10;99.90;;;;;;5097415;28;20193;-78
2021/09/23 06:06:26;;;;;;;23.20;15.43;;;13.20;99.90;;;;;;5096510;28;20177;-77
2021/09/23 06:08:52;;;;;;;40.40;15.10;;;13.30;99.90;;;;;;5095289;28;20574;-73
2021/09/23 06:11:18;;;;;;;31.15;14.57;;;13.30;99.90;;;;;;5095098;28;20186;-76
2021/09/23 06:13:46;;;;;;;33.92;15.73;;;13.20;99.90;;;;;;5094665;28;20162;-74
2021/09/23 06:16:12;;;;;;;25.88;13.88;;;13.30;99.90;;;;;;5095627;28;20165;-82
2021/09/23 06:18:38;;;;;;;33.25;14.82;;;13.20;99.90;;;;;;5102852;28;20205;-91
2021/09/23 06:21:05;;;;;;;23.73;15.60;;;13.30;99.90;;;;;;5097181;28;20171;-93
2021/09/23 06:23:31;;;;;;;23.60;15.75;;;13.40;99.90;;;;;;5098587;28;20170;-95
2021/09/23 06:25:57;;;;;;;28.95;16.77;;;13.40;99.90;;;;;;5097748;28;20176;-78
2021/09/23 06:28:22;;;;;;;23.05;14.73;;;13.50;99.90;;;;;;5098743;28;20216;-91
2021/09/23 06:30:48;;;;;;;26.98;15.98;;;13.50;99.90;;;;;;5099330;28;20200;-92
2021/09/23 06:33:14;;;;;;;23.92;15.38;;;13.60;99.90;;;;;;5099083;28;20166;-94
2021/09/23 06:35:39;;;;;;;26.77;13.95;;;13.60;99.90;;;;;;5098134;28;20516;-87
2021/09/23 06:38:05;;;;;;;29.65;14.75;;;13.50;99.90;;;;;;5101291;28;20197;-87
2021/09/23 06:40:31;;;;;;;28.67;15.70;;;13.50;99.90;;;;;;5100102;28;20168;-86
2021/09/23 06:42:57;;;;;;;24.52;15.07;;;13.40;99.90;;;;;;5097998;28;20166;-90
2021/09/23 06:45:23;;;;;;;28.35;16.30;;;13.40;99.90;;;;;;5098286;28;20249;-86
2021/09/23 06:47:50;;;;;;;23.45;15.25;;;13.60;99.90;;;;;;5100480;28;20192;-77
2021/09/23 06:50:16;;;;;;;23.45;15.75;;;13.60;99.90;;;;;;5099567;28;20158;-91
2021/09/23 06:52:42;;;;;;;30.10;15.73;;;13.60;99.90;;;;;;5097711;28;20181;-84
2021/09/23 06:55:10;;;;;;;35.47;16.80;;;13.60;99.90;;;;;;5095684;28;20167;-90
2021/09/23 06:57:36;;;;;;;26.63;16.08;;;13.70;99.90;;;;;;5097087;28;20181;-90
2021/09/23 07:00:03;;;;;;;27.88;16.27;;;13.80;99.90;;;;;;5095822;28;20162;-89
2021/09/23 07:02:28;;;;;;;23.17;15.63;;;13.80;99.90;;;;;;5098136;28;20170;-78
2021/09/23 07:04:54;;;;;;;30.63;15.65;;;13.90;99.90;;;;;;5104229;28;20249;-77
2021/09/23 07:07:20;;;;;;;26.40;15.18;;;14.00;99.90;;;;;;5107256;28;20196;-77
2021/09/23 07:09:46;;;;;;;20.75;14.30;;;14.10;99.90;;;;;;5112763;28;20198;-81
2021/09/23 07:12:13;;;;;;;21.13;15.90;;;14.20;99.90;;;;;;5100678;28;20220;-92
2021/09/23 07:14:39;;;;;;;32.80;16.55;;;14.00;99.90;;;;;;5089587;28;20170;-80
2021/09/23 07:17:05;;;;;;;31.75;16.63;;;14.20;99.90;;;;;;5082828;28;20220;-78
2021/09/23 07:19:31;;;;;;;22.13;15.38;;;14.20;99.90;;;;;;5091390;28;20197;-77
2021/09/23 07:21:57;;;;;;;24.63;14.82;;;14.20;99.90;;;;;;5093139;28;20630;-79
2021/09/23 07:24:25;;;;;;;24.75;14.80;;;14.10;99.90;;;;;;5084274;28;20265;-79
2021/09/23 07:26:51;;;;;;;29.88;16.83;;;14.20;99.90;;;;;;5085608;28;20180;-76
2021/09/23 07:29:17;;;;;;;32.25;17.02;;;14.30;99.90;;;;;;5092861;28;20293;-77
2021/09/23 07:31:44;;;;;;;30.05;16.50;;;14.40;99.90;;;;;;5092473;28;20192;-79
2021/09/23 07:34:10;;;;;;;29.10;16.30;;;14.50;99.90;;;;;;5091640;28;20599;-79
2021/09/23 07:36:36;;;;;;;25.00;16.23;;;14.60;99.90;;;;;;5093691;28;20170;-78
2021/09/23 07:39:06;;;;;;;30.65;16.63;;;14.80;99.90;;;;;;5092029;28;20266;-77
2021/09/23 07:41:37;;;;;;;35.58;16.48;;;14.90;99.90;;;;;;5092021;28;20188;-76
2021/09/23 07:44:08;;;;;;;35.95;18.48;;;15.00;99.90;;;;;;5093341;28;20170;-78
2021/09/23 07:46:34;;;;;;;25.73;17.88;;;15.20;99.90;;;;;;5092875;28;20271;-78
2021/09/23 07:49:03;;;;;;;29.05;16.50;;;15.30;99.90;;;;;;5092744;28;20251;-78
2021/09/23 07:51:29;;;;;;;31.05;18.00;;;15.40;99.90;;;;;;5095758;28;20707;-78
2021/09/23 07:53:54;;;;;;;28.52;17.80;;;15.50;99.90;;;;;;5093842;28;20177;-76
2021/09/23 07:56:20;;;;;;;26.15;16.75;;;15.60;99.90;;;;;;5094056;28;20260;-75
2021/09/23 07:58:46;;;;;;;24.13;15.82;;;15.50;99.90;;;;;;5098624;28;20201;-78
2021/09/23 08:01:11;;;;;;;25.60;18.23;;;15.70;99.90;;;;;;5098140;28;20178;-77
2021/09/23 08:03:37;;;;;;;34.67;19.75;;;15.90;99.90;;;;;;5092279;28;20173;-76
2021/09/23 08:06:03;;;;;;;33.00;17.85;;;16.00;99.90;;;;;;5091211;28;20264;-76
2021/09/23 08:08:28;;;;;;;31.02;18.48;;;16.10;99.90;;;;;;5092342;28;20718;-76
2021/09/23 08:10:54;;;;;;;33.55;18.88;;;16.20;99.90;;;;;;5092492;28;20597;-77
2021/09/23 08:13:20;;;;;;;32.55;19.02;;;16.20;99.90;;;;;;5091283;28;20174;-76
2021/09/23 08:15:45;;;;;;;31.52;19.05;;;16.30;99.90;;;;;;5091607;28;20197;-82
2021/09/23 08:18:12;;;;;;;26.98;17.02;;;16.30;99.90;;;;;;5092135;28;20189;-78
2021/09/23 08:20:39;;;;;;;33.90;18.33;;;16.30;99.90;;;;;;5092292;28;20212;-77
2021/09/23 08:23:05;;;;;;;24.73;17.50;;;16.50;99.90;;;;;;5090942;28;20194;-77
2021/09/23 08:25:32;;;;;;;31.08;19.77;;;16.50;99.90;;;;;;5091539;28;20559;-79
2021/09/23 08:27:58;;;;;;;33.78;18.40;;;16.50;99.90;;;;;;5091232;28;20212;-76
2021/09/23 08:30:24;;;;;;;27.70;19.55;;;16.50;99.90;;;;;;5091873;28;20210;-77
2021/09/23 08:32:49;;;;;;;32.33;18.63;;;16.70;99.90;;;;;;5091893;28;20169;-76
2021/09/23 08:35:16;;;;;;;26.17;18.02;;;16.90;99.90;;;;;;5091243;28;20196;-76
2021/09/23 08:37:41;;;;;;;25.27;17.63;;;17.00;99.90;;;;;;5091968;28;20646;-76
2021/09/23 08:40:11;;;;;;;27.13;19.05;;;17.10;99.90;;;;;;5091929;28;20303;-76
2021/09/23 08:42:42;;;;;;;31.02;19.42;;;17.10;99.90;;;;;;5093254;28;20169;-76
2021/09/23 08:45:10;;;;;;;22.58;17.40;;;17.10;99.90;;;;;;5092884;28;20244;-77
2021/09/23 08:47:36;;;;;;;25.80;17.60;;;17.20;99.90;;;;;;5092599;28;20200;-76
2021/09/23 08:50:09;;;;;;;32.03;19.30;;;17.30;99.90;;;;;;5090954;28;20173;-77
2021/09/23 08:52:34;;;;;;;28.25;17.50;;;17.30;99.90;;;;;;5092891;28;20173;-77
2021/09/23 08:55:02;;;;;;;24.52;17.52;;;17.50;99.90;;;;;;5092604;28;20169;-77
2021/09/23 08:57:28;;;;;;;24.92;16.08;;;17.80;99.90;;;;;;5092579;28;20162;-76
2021/09/23 08:59:54;;;;;;;27.38;16.85;;;18.20;99.90;;;;;;5092689;28;20176;-77
2021/09/23 09:02:25;;;;;;;24.90;17.40;;;18.50;99.90;;;;;;5092393;28;20169;-76
2021/09/23 09:04:55;;;;;;;21.17;16.77;;;18.60;99.90;;;;;;5091411;28;20260;-76
2021/09/23 09:07:26;;;;;;;26.33;16.77;;;18.70;99.90;;;;;;5092236;28;20528;-77
2021/09/23 09:10:05;;;;;;;26.15;17.30;;;18.50;99.90;;;;;;5092699;28;20190;-77
2021/09/23 09:12:31;;;;;;;33.72;17.30;;;18.60;99.90;;;;;;5092242;28;20545;-76
2021/09/23 09:14:58;;;;;;;28.15;17.77;;;18.60;99.90;;;;;;5092015;28;20185;-76
2021/09/23 09:17:24;;;;;;;17.25;14.88;;;18.90;99.90;;;;;;5092109;28;20205;-77
2021/09/23 09:19:57;;;;;;;19.75;14.43;;;19.00;99.90;;;;;;5091722;28;20655;-76
2021/09/23 09:22:26;;;;;;;25.17;16.05;;;18.60;99.90;;;;;;5092323;28;20158;-77
2021/09/23 09:24:57;;;;;;;22.45;15.85;;;18.60;99.90;;;;;;5092222;28;20192;-76
2021/09/23 09:27:37;;;;;;;18.55;15.05;;;18.50;99.90;;;;;;5090969;28;20505;-76
2021/09/23 09:30:13;;;;;;;24.48;15.23;;;18.50;99.90;;;;;;5092544;28;20270;-76
2021/09/23 09:32:50;;;;;;;24.52;14.80;;;18.70;99.90;;;;;;5092796;28;20165;-76
2021/09/23 09:35:30;;;;;;;16.10;13.60;;;18.70;99.90;;;;;;5092847;28;20256;-76
2021/09/23 09:37:58;;;;;;;22.33;14.50;;;18.70;99.90;;;;;;5092111;28;20272;-75
2021/09/23 09:40:34;;;;;;;20.80;13.70;;;18.80;99.90;;;;;;5092059;28;20546;-76
2021/09/23 09:43:05;;;;;;;19.60;13.77;;;18.80;99.90;;;;;;5092684;28;20240;-75
2021/09/23 09:45:32;;;;;;;19.02;13.60;;;19.00;99.90;;;;;;5092527;28;20170;-75
2021/09/23 09:47:59;;;;;;;25.70;13.20;;;19.10;99.90;;;;;;5091316;28;20691;-77
2021/09/23 09:50:33;;;;;;;42.85;13.15;;;19.00;99.90;;;;;;5092151;28;20162;-76
2021/09/23 09:53:02;;;;;;;14.40;11.15;;;18.90;99.90;;;;;;5091655;28;20531;-76
2021/09/23 09:55:30;;;;;;;17.83;12.93;;;18.90;99.90;;;;;;5091996;28;20197;-76
2021/09/23 09:57:57;;;;;;;17.33;12.32;;;19.00;99.90;;;;;;5091562;28;20218;-77
2021/09/23 10:00:24;;;;;;;17.55;12.07;;;19.10;99.90;;;;;;5091518;28;20532;-76
2021/09/23 10:02:50;;;;;;;15.80;11.73;;;19.10;99.90;;;;;;5092072;28;20185;-76
2021/09/23 10:05:18;;;;;;;13.88;11.52;;;19.20;99.90;;;;;;5090873;28;20629;-76
2021/09/23 10:07:47;;;;;;;14.63;10.77;;;19.40;99.90;;;;;;5091551;28;20209;-77
2021/09/23 10:10:14;;;;;;;14.20;10.90;;;19.30;99.90;;;;;;5092195;28;20162;-75
2021/09/23 10:12:43;;;;;;;15.38;10.77;;;19.40;99.90;;;;;;5091657;28;20587;-75
2021/09/23 10:15:12;;;;;;;12.82;10.10;;;19.30;99.90;;;;;;5091712;28;20177;-76
2021/09/23 10:17:38;;;;;;;16.88;12.50;;;19.10;99.90;;;;;;5093626;28;20677;-76
2021/09/23 10:20:07;;;;;;;15.02;11.50;;;19.00;99.90;;;;;;5095730;28;20166;-75
2021/09/23 10:22:33;;;;;;;13.48;10.27;;;19.00;99.90;;;;;;5094021;28;20215;-75
2021/09/23 10:25:00;;;;;;;15.05;11.00;;;19.00;99.90;;;;;;5095583;28;20219;-76
2021/09/23 10:30:12;;;;;;;20.17;11.85;;;19.30;99.90;;;;;;5095418;28;20544;-76
2021/09/23 10:32:39;;;;;;;16.67;11.45;;;19.40;99.90;;;;;;5095005;28;20158;-77
2021/09/23 10:35:05;;;;;;;17.95;12.68;;;19.40;99.90;;;;;;5095223;28;20638;-77
2021/09/23 10:37:32;;;;;;;20.42;12.65;;;19.40;99.90;;;;;;5095158;28;20194;-80
2021/09/23 10:39:58;;;;;;;16.10;11.27;;;19.50;99.90;;;;;;5095636;28;20202;-80
2021/09/23 10:42:24;;;;;;;15.35;11.88;;;19.70;99.90;;;;;;5097061;28;20668;-88
2021/09/23 10:44:51;;;;;;;15.80;11.45;;;19.80;99.90;;;;;;5112545;28;20197;-87
2021/09/23 10:47:28;;;;;;;24.02;12.52;;;19.80;99.90;;;;;;5116073;28;20233;-86
2021/09/23 10:49:56;;;;;;;19.05;13.07;;;19.60;99.90;;;;;;5118331;28;20203;-86
2021/09/23 10:52:22;;;;;;;21.80;12.73;;;19.60;99.90;;;;;;5109311;28;20201;-88
2021/09/23 10:54:52;;;;;;;15.13;11.70;;;19.80;99.90;;;;;;5097418;28;20162;-87
2021/09/23 10:57:20;;;;;;;20.70;11.30;;;19.80;99.90;;;;;;5096254;28;20166;-88
2021/09/23 10:59:49;;;;;;;17.38;11.27;;;20.10;99.90;;;;;;5096233;28;20178;-89
2021/09/23 11:02:24;;;;;;;15.68;12.80;;;20.30;99.90;;;;;;5097941;28;20537;-89
2021/09/23 11:04:58;;;;;;;16.48;9.75;;;20.20;99.90;;;;;;5095668;28;20169;-89
2021/09/23 11:07:26;;;;;;;11.45;9.85;;;20.00;99.90;;;;;;5095754;28;20173;-88
2021/09/23 11:10:32;;;;;;;14.13;8.90;;;19.80;99.90;;;;;;5096491;28;20178;-88
2021/09/23 11:12:59;;;;;;;12.80;9.75;;;19.70;99.90;;;;;;5097934;28;20253;-88
2021/09/23 11:15:32;;;;;;;16.00;9.23;;;19.40;99.90;;;;;;5098182;28;20196;-88
2021/09/23 11:18:00;;;;;;;12.80;9.02;;;19.20;99.90;;;;;;5106204;28;20189;-87
2021/09/23 11:20:28;;;;;;;16.40;9.15;;;19.30;99.90;;;;;;5097650;28;20165;-88
2021/09/23 11:22:56;;;;;;;7.75;6.88;;;19.20;99.90;;;;;;5097906;28;20174;-89
2021/09/23 11:25:24;;;;;;;7.22;6.63;;;19.20;99.90;;;;;;5104456;28;20648;-89
2021/09/23 11:27:51;;;;;;;11.90;5.60;;;19.00;99.90;;;;;;5097323;28;20573;-88
2021/09/23 11:30:21;;;;;;;11.82;6.38;;;19.10;99.90;;;;;;5095204;28;20181;-89
2021/09/23 11:32:51;;;;;;;5.10;4.70;;;19.00;99.90;;;;;;5095376;28;20186;-89
2021/09/23 11:35:20;;;;;;;7.18;4.93;;;19.10;99.90;;;;;;5095554;28;20178;-89
2021/09/23 11:37:48;;;;;;;8.93;5.05;;;19.00;99.90;;;;;;5094588;28;20193;-86
2021/09/23 11:40:34;;;;;;;8.57;6.05;;;19.10;99.90;;;;;;5093591;28;20501;-83
2021/09/23 11:43:07;;;;;;;7.07;5.38;;;19.20;99.90;;;;;;5095245;28;20170;-88
2021/09/23 11:45:35;;;;;;;7.15;5.45;;;19.40;99.90;;;;;;5077208;28;20170;-84
2021/09/23 11:48:10;;;;;;;11.70;5.30;;;19.50;99.90;;;;;;5094120;28;20225;-87
2021/09/23 11:50:37;;;;;;;9.63;6.00;;;19.60;99.90;;;;;;5093639;28;20173;-87
2021/09/23 11:53:19;;;;;;;6.30;5.80;;;19.80;99.90;;;;;;5095128;28;20162;-87
2021/09/23 11:56:01;;;;;;;6.78;5.72;;;19.90;99.90;;;;;;5094422;28;20161;-87
2021/09/23 11:58:29;;;;;;;12.07;6.05;;;20.00;99.90;;;;;;5095218;28;20196;-85
2021/09/23 12:00:55;;;;;;;8.88;5.70;;;19.80;99.90;;;;;;5094715;28;20507;-86
2021/09/23 12:03:22;;;;;;;9.00;6.50;;;19.70;99.90;;;;;;5095051;28;20199;-87
2021/09/23 12:05:49;;;;;;;12.57;6.50;;;19.70;99.90;;;;;;5094240;28;20174;-87
2021/09/23 12:08:20;;;;;;;12.40;5.63;;;19.60;99.90;;;;;;5093643;28;20205;-87
2021/09/23 12:11:10;;;;;;;7.25;6.47;;;19.60;99.90;;;;;;5094100;28;20178;-86
2021/09/23 12:13:45;;;;;;;6.75;5.82;;;19.60;99.90;;;;;;5086455;28;20209;-87
2021/09/23 12:16:15;;;;;;;7.75;6.03;;;19.60;99.90;;;;;;5094665;28;20181;-88
2021/09/23 12:18:45;;;;;;;6.63;6.13;;;19.60;99.90;;;;;;5096252;28;20190;-86
2021/09/23 12:21:19;;;;;;;13.00;6.05;;;19.70;99.90;;;;;;5100512;28;20276;-91
2021/09/23 12:23:46;;;;;;;5.57;5.07;;;19.90;99.90;;;;;;5102343;28;20146;-91
2021/09/23 12:26:33;;;;;;;12.40;6.70;;;19.90;99.90;;;;;;5100519;28;20219;-93
2021/09/23 12:29:04;;;;;;;7.85;6.10;;;19.90;99.90;;;;;;5100862;28;20228;-95
2021/09/23 12:31:42;;;;;;;7.10;6.15;;;20.00;99.90;;;;;;5100460;28;20170;-94
2021/09/23 12:34:14;;;;;;;7.97;5.85;;;20.10;99.90;;;;;;5101708;28;20173;-93
2021/09/23 12:36:42;;;;;;;13.35;6.35;;;20.00;99.90;;;;;;5099935;28;20244;-90
2021/09/23 12:39:15;;;;;;;7.72;5.78;;;19.90;99.90;;;;;;5099860;28;20185;-80